Time;durP1;ratioP1;P1;durP2;ratioP2;P2;SDS_P1;SDS_P2;PMS_P1;PMS_P2;Temp;Humidity;BMP_temperature;BMP_pressure;BME280_temperature;BME280_humidity;BME280_pressure;Samples;Min_cycle;Max_cycle;Signal;HPM_P1;HPM_P2
2022/05/09 00:02:26;;;;;;;5.00;3.90;;;11.10;99.90;;;;;;5072606;28;20487;-82
2022/05/09 00:04:52;;;;;;;7.05;4.88;;;11.10;99.90;;;;;;5072987;28;20028;-81
2022/05/09 00:07:18;;;;;;;6.32;4.38;;;11.10;99.90;;;;;;5072854;28;20033;-81
2022/05/09 00:09:44;;;;;;;6.55;4.70;;;11.10;99.90;;;;;;5073047;28;20035;-81
2022/05/09 00:12:10;;;;;;;6.22;4.93;;;11.10;99.90;;;;;;5073019;28;20387;-81
2022/05/09 00:14:36;;;;;;;7.40;5.28;;;11.10;99.90;;;;;;5072763;28;20017;-81
2022/05/09 00:17:01;;;;;;;6.30;4.70;;;11.20;99.90;;;;;;5072794;28;20130;-81
2022/05/09 00:19:27;;;;;;;7.72;5.10;;;11.20;99.90;;;;;;5072947;28;20060;-81
2022/05/09 00:21:53;;;;;;;8.57;5.10;;;11.20;99.90;;;;;;5072691;28;20028;-81
2022/05/09 00:24:20;;;;;;;9.07;5.30;;;11.10;99.90;;;;;;5072953;28;20071;-81
2022/05/09 00:26:47;;;;;;;7.85;5.07;;;11.10;99.90;;;;;;5072755;28;20027;-82
2022/05/09 00:29:14;;;;;;;5.55;4.70;;;11.10;99.90;;;;;;5072813;28;20036;-82
2022/05/09 00:31:43;;;;;;;7.97;5.38;;;11.00;99.90;;;;;;5072693;28;20021;-82
2022/05/09 00:34:10;;;;;;;7.35;4.90;;;11.00;99.90;;;;;;5072821;28;20031;-82
2022/05/09 00:36:37;;;;;;;7.75;4.97;;;11.00;99.90;;;;;;5072305;28;20020;-81
2022/05/09 00:39:03;;;;;;;7.40;5.05;;;11.00;99.90;;;;;;5072729;28;20044;-82
2022/05/09 00:41:34;;;;;;;6.68;4.80;;;11.00;99.90;;;;;;5072849;28;20461;-82
2022/05/09 00:44:02;;;;;;;6.20;4.70;;;11.00;99.90;;;;;;5058498;28;20028;-81
2022/05/09 00:46:28;;;;;;;6.88;4.78;;;11.10;99.90;;;;;;5076268;28;20031;-82
2022/05/09 00:48:57;;;;;;;7.85;5.22;;;11.10;99.90;;;;;;5076385;28;20095;-82
2022/05/09 00:51:25;;;;;;;6.55;4.75;;;11.10;99.90;;;;;;5076217;28;20087;-82
2022/05/09 00:53:54;;;;;;;8.02;5.43;;;11.10;99.90;;;;;;5075914;28;20446;-81
2022/05/09 00:56:25;;;;;;;6.22;4.50;;;11.20;99.90;;;;;;5076091;28;20055;-82
2022/05/09 00:58:59;;;;;;;6.57;4.68;;;11.10;99.90;;;;;;5065288;28;20396;-82
2022/05/09 01:01:25;;;;;;;9.30;5.55;;;11.20;99.90;;;;;;5075481;28;20120;-81
2022/05/09 01:04:20;;;;;;;8.63;5.22;;;11.20;99.90;;;;;;5063725;28;20168;-82
2022/05/09 01:06:45;;;;;;;9.52;5.50;;;11.10;99.90;;;;;;5078665;28;20039;-82
2022/05/09 01:09:11;;;;;;;7.30;5.25;;;11.10;99.90;;;;;;5061729;28;20488;-82
2022/05/09 01:11:38;;;;;;;9.63;5.97;;;11.00;99.90;;;;;;5075701;28;20046;-82
2022/05/09 01:14:09;;;;;;;7.78;5.82;;;10.90;99.90;;;;;;5075431;28;20019;-81
2022/05/09 01:16:36;;;;;;;8.77;5.55;;;10.90;99.90;;;;;;5057415;28;20024;-81
2022/05/09 01:19:27;;;;;;;8.43;5.53;;;10.80;99.90;;;;;;5076031;28;20033;-81
2022/05/09 01:21:53;;;;;;;7.32;5.70;;;10.70;99.90;;;;;;5074781;28;20036;-81
2022/05/09 01:24:21;;;;;;;8.63;6.00;;;10.70;99.90;;;;;;5075288;28;20017;-81
2022/05/09 01:26:47;;;;;;;7.20;5.25;;;10.70;99.90;;;;;;5057552;28;20119;-81
2022/05/09 01:29:28;;;;;;;6.57;5.47;;;10.70;99.90;;;;;;5075497;28;20029;-81
2022/05/09 01:31:55;;;;;;;8.65;5.18;;;10.70;99.90;;;;;;5075191;28;20024;-81
2022/05/09 01:34:21;;;;;;;7.68;5.60;;;10.70;99.90;;;;;;5075265;28;20020;-81
2022/05/09 01:36:55;;;;;;;9.45;6.03;;;10.80;99.90;;;;;;5075271;28;20029;-81
2022/05/09 01:39:23;;;;;;;6.90;5.60;;;10.80;99.90;;;;;;5074792;28;20047;-81
2022/05/09 01:41:50;;;;;;;8.10;5.57;;;10.90;99.90;;;;;;5075101;28;20241;-81
2022/05/09 01:44:17;;;;;;;7.05;5.43;;;10.90;99.90;;;;;;5075097;28;20049;-81
2022/05/09 01:49:30;;;;;;;7.30;5.60;;;10.80;99.90;;;;;;5075395;28;20085;-81
2022/05/09 01:51:57;;;;;;;7.28;5.22;;;10.90;99.90;;;;;;5074945;28;20029;-81
2022/05/09 01:54:23;;;;;;;9.75;5.28;;;10.90;99.90;;;;;;5074147;28;20035;-81
2022/05/09 01:56:48;;;;;;;5.78;4.82;;;10.90;99.90;;;;;;5056700;28;20037;-81
2022/05/09 01:59:15;;;;;;;6.43;4.63;;;10.80;99.90;;;;;;5074601;28;20025;-81
2022/05/09 02:02:03;;;;;;;7.75;5.28;;;10.80;99.90;;;;;;5074779;28;20095;-81
2022/05/09 02:04:29;;;;;;;6.97;4.97;;;10.80;99.90;;;;;;5075029;28;20025;-81
2022/05/09 02:06:57;;;;;;;7.53;5.25;;;10.80;99.90;;;;;;5057759;28;20035;-81
2022/05/09 02:09:23;;;;;;;7.47;5.15;;;10.80;99.90;;;;;;5072179;28;20021;-81
2022/05/09 02:11:49;;;;;;;7.18;5.32;;;10.80;99.90;;;;;;5056900;28;20021;-81
2022/05/09 02:14:15;;;;;;;6.63;4.35;;;10.80;99.90;;;;;;5074979;28;20457;-81
2022/05/09 02:16:40;;;;;;;6.03;4.60;;;10.80;99.90;;;;;;5074819;28;20032;-81
2022/05/09 02:19:06;;;;;;;6.45;5.13;;;10.80;99.90;;;;;;5074579;28;20024;-81
2022/05/09 02:21:33;;;;;;;6.82;4.68;;;10.80;99.90;;;;;;5074856;28;20483;-81
2022/05/09 02:23:59;;;;;;;5.65;4.38;;;10.80;99.90;;;;;;5074081;28;20028;-81
2022/05/09 02:26:25;;;;;;;7.65;4.70;;;10.90;99.90;;;;;;5053789;28;20036;-81
2022/05/09 02:28:51;;;;;;;7.13;4.60;;;10.80;99.90;;;;;;5036798;28;20029;-81
2022/05/09 02:31:20;;;;;;;6.85;5.22;;;10.90;99.90;;;;;;5054838;28;20053;-81
2022/05/09 02:33:46;;;;;;;6.63;5.15;;;10.80;99.90;;;;;;5074904;28;20020;-81
2022/05/09 02:36:12;;;;;;;7.32;4.95;;;10.80;99.90;;;;;;5062429;28;20115;-81
2022/05/09 02:38:38;;;;;;;6.38;4.78;;;10.80;99.90;;;;;;5074104;28;20104;-81
2022/05/09 02:41:04;;;;;;;7.30;5.20;;;10.80;99.90;;;;;;5073827;28;20028;-81
2022/05/09 02:43:31;;;;;;;7.45;4.72;;;10.80;99.90;;;;;;5074031;28;20051;-81
2022/05/09 02:46:03;;;;;;;7.25;4.70;;;10.80;99.90;;;;;;5074494;28;20025;-81
2022/05/09 02:48:30;;;;;;;6.97;4.72;;;10.80;99.90;;;;;;5074022;28;20078;-79
2022/05/09 02:50:56;;;;;;;5.63;4.53;;;10.80;99.90;;;;;;5074021;28;20028;-79
2022/05/09 02:53:21;;;;;;;5.90;4.28;;;10.80;99.90;;;;;;5073936;28;20091;-79
2022/05/09 02:55:47;;;;;;;6.68;4.50;;;10.80;99.90;;;;;;5074104;28;20021;-79
2022/05/09 02:58:14;;;;;;;6.00;4.38;;;10.80;99.90;;;;;;5073726;28;20028;-79
2022/05/09 03:00:39;;;;;;;7.22;4.75;;;10.80;99.90;;;;;;5073285;28;20040;-79
2022/05/09 03:05:52;;;;;;;7.63;4.40;;;10.80;99.90;;;;;;5074015;28;20085;-79
2022/05/09 03:08:18;;;;;;;5.70;4.43;;;10.80;99.90;;;;;;5073085;28;20487;-81
2022/05/09 03:10:44;;;;;;;6.10;4.50;;;10.80;99.90;;;;;;5073399;28;20115;-81
2022/05/09 03:13:12;;;;;;;7.63;4.72;;;10.80;99.90;;;;;;5073513;28;20027;-81
2022/05/09 03:15:42;;;;;;;5.43;4.22;;;10.80;99.90;;;;;;5073401;28;20099;-80
2022/05/09 03:18:08;;;;;;;6.38;4.90;;;10.80;99.90;;;;;;5073470;28;20492;-80
2022/05/09 03:20:34;;;;;;;6.72;4.45;;;10.80;99.90;;;;;;5073327;28;20037;-80
2022/05/09 03:23:02;;;;;;;5.35;4.57;;;10.80;99.90;;;;;;5073191;28;20028;-80
2022/05/09 03:25:28;;;;;;;6.25;4.70;;;10.80;99.90;;;;;;5055659;28;20392;-80
2022/05/09 03:27:53;;;;;;;6.15;4.43;;;10.80;99.90;;;;;;5073166;28;20036;-80
2022/05/09 03:30:19;;;;;;;6.65;4.65;;;10.80;99.90;;;;;;5073219;28;20388;-80
2022/05/09 03:32:47;;;;;;;7.05;4.97;;;10.70;99.90;;;;;;5072966;28;20033;-80
2022/05/09 03:35:14;;;;;;;5.90;4.68;;;10.70;99.90;;;;;;5073308;28;20036;-80
2022/05/09 03:37:40;;;;;;;5.75;4.00;;;10.70;99.90;;;;;;5072780;28;20043;-80
2022/05/09 03:40:07;;;;;;;8.25;4.60;;;10.70;99.90;;;;;;5072968;28;20028;-80
2022/05/09 03:42:32;;;;;;;5.55;4.57;;;10.60;99.90;;;;;;5073064;28;20027;-80
2022/05/09 03:44:58;;;;;;;6.07;4.20;;;10.60;99.90;;;;;;5072368;28;20028;-80
2022/05/09 03:47:24;;;;;;;6.25;4.75;;;10.60;99.90;;;;;;5070295;28;20039;-81
2022/05/09 03:49:55;;;;;;;6.63;4.40;;;10.60;99.90;;;;;;5075287;28;20037;-81
2022/05/09 03:52:21;;;;;;;5.90;4.10;;;10.50;99.90;;;;;;5053559;28;20175;-80
2022/05/09 03:54:47;;;;;;;5.72;3.88;;;10.60;99.90;;;;;;5072445;28;20454;-80
2022/05/09 03:57:12;;;;;;;5.50;3.92;;;10.50;99.90;;;;;;5072115;28;20055;-80
2022/05/09 03:59:38;;;;;;;5.65;4.03;;;10.50;99.90;;;;;;5071536;28;20048;-76
2022/05/09 04:02:04;;;;;;;6.78;4.50;;;10.50;99.90;;;;;;5071712;28;20484;-76
2022/05/09 04:04:29;;;;;;;6.10;4.40;;;10.50;99.90;;;;;;5072818;28;20048;-76
2022/05/09 04:06:55;;;;;;;5.50;4.10;;;10.40;99.90;;;;;;5071550;28;20024;-76
2022/05/09 04:09:21;;;;;;;5.28;3.75;;;10.40;99.90;;;;;;5071793;28;20029;-76
2022/05/09 04:11:48;;;;;;;6.18;3.90;;;10.40;99.90;;;;;;5054391;28;20465;-79
2022/05/09 04:14:14;;;;;;;6.45;4.10;;;10.40;99.90;;;;;;5054695;28;20150;-78
2022/05/09 04:16:49;;;;;;;6.35;4.68;;;10.40;99.90;;;;;;5073344;28;20028;-76
2022/05/09 04:19:16;;;;;;;7.32;4.15;;;10.40;99.90;;;;;;5075642;28;20082;-76
2022/05/09 04:21:42;;;;;;;7.85;4.53;;;10.30;99.90;;;;;;5076009;28;20563;-76
2022/05/09 04:24:08;;;;;;;6.75;4.25;;;10.30;99.90;;;;;;5075857;28;20039;-77
2022/05/09 04:26:34;;;;;;;6.60;5.13;;;10.40;99.90;;;;;;5057504;28;20399;-76
2022/05/09 04:29:01;;;;;;;9.13;5.38;;;10.30;99.90;;;;;;5076493;28;20082;-76
2022/05/09 04:31:28;;;;;;;7.35;5.00;;;10.30;99.90;;;;;;5077152;28;20027;-76
2022/05/09 04:33:55;;;;;;;7.63;5.78;;;10.30;99.90;;;;;;5074606;28;20021;-77
2022/05/09 04:36:25;;;;;;;7.80;5.53;;;10.30;99.90;;;;;;5075977;28;20047;-76
2022/05/09 04:38:52;;;;;;;8.53;5.70;;;10.40;99.90;;;;;;5076241;28;20092;-76
2022/05/09 04:41:19;;;;;;;9.38;6.30;;;10.40;99.90;;;;;;5058494;28;20822;-76
2022/05/09 04:43:46;;;;;;;10.80;7.68;;;10.40;99.90;;;;;;5076250;28;20104;-76
2022/05/09 04:46:13;;;;;;;8.48;5.93;;;10.40;99.90;;;;;;5076803;28;20028;-79
2022/05/09 04:48:43;;;;;;;9.32;6.10;;;10.50;99.90;;;;;;5077116;28;20431;-78
2022/05/09 04:51:10;;;;;;;9.00;5.25;;;10.50;99.90;;;;;;5076866;28;20024;-79
2022/05/09 04:53:36;;;;;;;7.47;4.65;;;10.50;99.90;;;;;;5076494;28;20115;-79
2022/05/09 04:56:02;;;;;;;6.75;4.38;;;10.50;99.90;;;;;;5076441;28;20093;-79
2022/05/09 04:58:28;;;;;;;7.50;5.22;;;10.50;99.90;;;;;;5076155;28;20075;-79
2022/05/09 05:00:54;;;;;;;9.68;5.88;;;10.50;99.90;;;;;;5076320;28;20033;-77
2022/05/09 05:03:20;;;;;;;7.45;5.15;;;10.40;99.90;;;;;;5076298;28;20028;-77
2022/05/09 05:05:45;;;;;;;7.18;4.97;;;10.40;99.90;;;;;;5076194;28;20028;-80
2022/05/09 05:08:15;;;;;;;7.47;4.82;;;10.40;99.90;;;;;;5076168;28;20029;-79
2022/05/09 05:10:41;;;;;;;8.27;4.88;;;10.40;99.90;;;;;;5076435;28;20407;-79
2022/05/09 05:13:07;;;;;;;6.97;4.65;;;10.40;99.90;;;;;;5076461;28;20021;-79
2022/05/09 05:15:34;;;;;;;7.85;4.70;;;10.50;99.90;;;;;;5076199;28;20130;-79
2022/05/09 05:18:00;;;;;;;5.90;4.32;;;10.50;99.90;;;;;;5076554;28;20029;-79
2022/05/09 05:20:26;;;;;;;5.82;4.32;;;10.40;99.90;;;;;;5076222;28;20511;-79
2022/05/09 05:22:52;;;;;;;5.80;4.22;;;10.50;99.90;;;;;;5075729;28;20107;-79
2022/05/09 05:25:29;;;;;;;5.18;4.28;;;10.50;99.90;;;;;;5076143;28;20024;-79
2022/05/09 05:27:56;;;;;;;6.53;4.43;;;10.50;99.90;;;;;;5074180;28;20090;-79
2022/05/09 05:30:23;;;;;;;6.75;4.28;;;10.60;99.90;;;;;;5074989;28;20103;-79
2022/05/09 05:32:49;;;;;;;6.20;4.15;;;10.60;99.90;;;;;;5075783;28;20021;-80
2022/05/09 05:35:19;;;;;;;6.35;4.22;;;10.70;99.90;;;;;;5057556;28;20029;-80
2022/05/09 05:37:44;;;;;;;5.28;4.32;;;10.70;99.90;;;;;;5075448;28;20384;-79
2022/05/09 05:40:11;;;;;;;6.82;5.20;;;10.80;99.90;;;;;;5075566;28;20024;-80
2022/05/09 05:42:42;;;;;;;8.38;5.18;;;10.80;99.90;;;;;;5075836;28;20028;-80
2022/05/09 05:45:10;;;;;;;13.00;5.25;;;10.80;99.90;;;;;;5075533;28;20024;-79
2022/05/09 05:47:36;;;;;;;9.07;5.15;;;10.90;99.90;;;;;;5075345;28;20037;-80
2022/05/09 05:50:03;;;;;;;7.07;5.30;;;10.90;99.90;;;;;;5075396;28;20025;-79
2022/05/09 05:52:29;;;;;;;6.53;4.85;;;10.90;99.90;;;;;;5075704;28;20020;-80
2022/05/09 05:54:54;;;;;;;6.38;4.90;;;10.90;99.90;;;;;;5075139;28;20075;-79
2022/05/09 05:57:26;;;;;;;9.80;6.72;;;10.90;99.90;;;;;;5075097;28;20111;-79
2022/05/09 05:59:53;;;;;;;;;;;10.90;99.90;;;;;;5073387;28;20024;-79
2022/05/09 06:02:18;;;;;;;10.40;5.68;;;11.00;99.90;;;;;;5076505;28;20002;-79
2022/05/09 06:04:44;;;;;;;17.80;7.07;;;11.00;99.90;;;;;;5073121;28;20157;-79
2022/05/09 06:07:12;;;;;;;11.43;7.78;;;11.00;99.90;;;;;;5073192;28;20025;-80
2022/05/09 06:09:38;;;;;;;14.05;8.77;;;11.10;99.90;;;;;;5054337;28;20078;-80
2022/05/09 06:12:05;;;;;;;15.25;8.82;;;11.10;99.90;;;;;;5073707;28;20036;-81
2022/05/09 06:14:30;;;;;;;16.15;10.50;;;11.10;99.90;;;;;;5056805;28;20495;-83
2022/05/09 06:16:56;;;;;;;15.00;8.80;;;11.20;99.90;;;;;;5074588;28;20064;-81
2022/05/09 06:19:23;;;;;;;12.75;9.20;;;11.20;99.90;;;;;;5056606;28;20048;-82
2022/05/09 06:21:50;;;;;;;10.35;7.50;;;11.20;99.90;;;;;;5074502;28;20028;-81
2022/05/09 06:24:16;;;;;;;10.80;7.07;;;11.30;99.90;;;;;;5074339;28;20519;-81
2022/05/09 06:26:44;;;;;;;11.88;7.70;;;11.30;99.90;;;;;;5074501;28;20089;-81
2022/05/09 06:29:10;;;;;;;11.98;7.57;;;11.40;99.90;;;;;;5089504;28;20024;-81
2022/05/09 06:31:37;;;;;;;10.20;7.18;;;11.40;99.90;;;;;;5094663;28;20020;-81
2022/05/09 06:34:04;;;;;;;14.52;8.35;;;11.50;99.90;;;;;;5093162;28;20024;-81
2022/05/09 06:36:37;;;;;;;16.05;9.27;;;11.60;99.90;;;;;;5074356;28;20041;-81
2022/05/09 06:39:04;;;;;;;14.20;9.75;;;11.60;99.90;;;;;;5073917;28;20021;-81
2022/05/09 06:41:30;;;;;;;14.07;9.18;;;11.70;99.90;;;;;;5073790;28;20098;-80
2022/05/09 06:43:56;;;;;;;11.77;8.25;;;11.70;99.90;;;;;;5074126;28;20490;-81
2022/05/09 06:46:22;;;;;;;11.20;7.95;;;11.70;99.90;;;;;;5081161;28;20028;-81
2022/05/09 06:48:49;;;;;;;15.55;10.35;;;11.80;99.90;;;;;;5076074;28;20381;-81
2022/05/09 06:51:14;;;;;;;14.07;9.70;;;11.90;99.90;;;;;;5094164;28;20107;-82
2022/05/09 06:53:40;;;;;;;15.80;9.90;;;11.90;99.90;;;;;;5094203;28;20048;-81
2022/05/09 06:56:07;;;;;;;13.40;9.43;;;12.00;99.90;;;;;;5094216;28;20050;-81
2022/05/09 06:58:32;;;;;;;12.00;9.13;;;12.10;99.90;;;;;;5094860;28;20356;-81
2022/05/09 07:00:58;;;;;;;13.98;10.27;;;12.20;99.90;;;;;;5083134;28;20025;-81
2022/05/09 07:03:25;;;;;;;15.02;10.57;;;12.20;99.90;;;;;;5055814;28;20020;-81
2022/05/09 07:05:51;;;;;;;14.73;10.30;;;12.20;99.90;;;;;;5073786;28;20028;-81
2022/05/09 07:08:19;;;;;;;11.65;9.05;;;12.30;99.90;;;;;;5073887;28;20020;-78
2022/05/09 07:10:45;;;;;;;11.07;8.43;;;12.30;99.90;;;;;;5074576;28;20056;-78
2022/05/09 07:13:11;;;;;;;11.95;8.75;;;12.40;99.90;;;;;;5055856;28;20029;-78
2022/05/09 07:15:37;;;;;;;13.20;9.93;;;12.50;99.90;;;;;;5074142;28;20017;-79
2022/05/09 07:18:03;;;;;;;14.13;10.27;;;12.50;99.90;;;;;;5074338;28;20025;-78
2022/05/09 07:20:32;;;;;;;12.98;10.23;;;12.60;99.90;;;;;;5073965;28;20052;-78
2022/05/09 07:23:10;;;;;;;16.00;11.63;;;12.60;99.90;;;;;;5081947;28;20031;-79
2022/05/09 07:25:36;;;;;;;12.88;9.45;;;12.60;99.90;;;;;;5095726;28;20031;-78
2022/05/09 07:28:02;;;;;;;14.00;10.40;;;12.70;99.90;;;;;;5095088;28;20098;-78
2022/05/09 07:30:28;;;;;;;18.08;10.18;;;12.80;99.90;;;;;;5094701;28;20464;-78
2022/05/09 07:32:54;;;;;;;13.30;9.32;;;12.80;99.90;;;;;;5095308;28;20368;-78
2022/05/09 07:35:21;;;;;;;11.50;8.73;;;12.90;99.90;;;;;;5081813;28;20115;-78
2022/05/09 07:37:47;;;;;;;17.60;9.90;;;13.00;99.90;;;;;;5079014;28;20020;-78
2022/05/09 07:40:15;;;;;;;17.25;10.13;;;13.10;99.90;;;;;;5094005;28;20472;-76
2022/05/09 07:42:42;;;;;;;15.88;9.35;;;13.20;99.90;;;;;;5094474;28;20027;-78
2022/05/09 07:45:10;;;;;;;13.57;9.60;;;13.30;99.90;;;;;;5095047;28;20452;-76
2022/05/09 07:47:36;;;;;;;12.80;9.32;;;13.40;99.90;;;;;;5068097;28;20086;-79
2022/05/09 07:50:02;;;;;;;13.00;8.25;;;13.60;99.90;;;;;;5060010;28;20126;-77
2022/05/09 07:52:28;;;;;;;12.40;8.65;;;13.80;99.90;;;;;;5065953;28;20024;-77
2022/05/09 07:54:53;;;;;;;14.23;9.55;;;13.90;99.90;;;;;;5064803;28;20024;-77
2022/05/09 07:57:19;;;;;;;11.35;8.80;;;14.10;99.90;;;;;;5057690;28;20047;-77
2022/05/09 07:59:45;;;;;;;11.48;8.07;;;14.10;99.90;;;;;;5055086;28;20060;-77
2022/05/09 08:02:10;;;;;;;12.25;7.82;;;14.30;99.90;;;;;;5058440;28;20021;-76
2022/05/09 08:04:36;;;;;;;10.63;7.93;;;14.50;99.90;;;;;;5070841;28;20027;-76
2022/05/09 08:07:02;;;;;;;13.60;7.55;;;14.60;99.90;;;;;;5065859;28;20013;-77
2022/05/09 08:09:29;;;;;;;8.00;6.68;;;14.60;99.90;;;;;;5065386;28;20037;-77
2022/05/09 08:11:55;;;;;;;8.65;6.60;;;14.70;99.90;;;;;;5065101;28;20028;-77
2022/05/09 08:14:21;;;;;;;10.95;7.38;;;14.80;99.90;;;;;;5066208;28;20025;-77
2022/05/09 08:16:47;;;;;;;14.05;6.72;;;15.00;99.90;;;;;;5077699;28;20028;-77
2022/05/09 08:19:14;;;;;;;7.72;6.40;;;15.10;99.90;;;;;;5089712;28;20027;-77
2022/05/09 08:21:40;;;;;;;8.32;6.60;;;15.20;99.90;;;;;;5098207;28;20031;-77
2022/05/09 08:24:08;;;;;;;8.52;6.15;;;15.20;99.90;;;;;;5096535;28;20489;-77
2022/05/09 08:26:34;;;;;;;9.25;6.65;;;15.30;99.90;;;;;;5098267;28;20012;-77
2022/05/09 08:29:01;;;;;;;19.05;6.10;;;15.40;99.90;;;;;;5079782;28;20036;-77
2022/05/09 08:31:27;;;;;;;10.60;5.97;;;15.50;99.90;;;;;;5097748;28;20020;-77
2022/05/09 08:33:56;;;;;;;9.18;5.75;;;15.50;99.90;;;;;;5098128;28;20349;-77
2022/05/09 08:39:08;;;;;;;8.18;5.20;;;15.70;99.90;;;;;;5057185;28;20074;-77
2022/05/09 08:41:58;;;;;;;10.57;5.53;;;15.70;99.90;;;;;;5057345;28;20392;-77
2022/05/09 08:44:45;;;;;;;8.73;5.13;;;15.80;99.90;;;;;;5061696;28;20016;-79
2022/05/09 08:47:17;;;;;;;8.90;6.75;;;15.90;99.90;;;;;;5076872;28;20024;-77
2022/05/09 08:49:45;;;;;;;6.03;4.70;;;16.00;99.90;;;;;;5076649;28;20024;-77
2022/05/09 08:52:20;;;;;;;6.78;5.18;;;16.10;99.90;;;;;;5075783;28;20070;-77
2022/05/09 08:54:46;;;;;;;5.97;4.75;;;16.20;99.90;;;;;;5075571;28;20487;-78
2022/05/09 08:57:16;;;;;;;5.97;4.55;;;16.30;99.90;;;;;;5059118;28;20036;-77
2022/05/09 09:00:06;;;;;;;6.07;4.30;;;16.50;99.90;;;;;;5077404;28;20020;-77
2022/05/09 09:02:57;;;;;;;3.95;3.53;;;16.60;99.90;;;;;;5076432;28;20031;-77
2022/05/09 09:05:25;;;;;;;5.85;3.65;;;16.80;99.90;;;;;;5059003;28;20361;-77
2022/05/09 09:08:12;;;;;;;6.55;4.00;;;16.90;99.90;;;;;;5076041;28;20024;-77
2022/05/09 09:10:43;;;;;;;5.55;4.10;;;17.10;98.80;;;;;;5076970;28;20032;-77
2022/05/09 09:13:09;;;;;;;;;;;17.10;99.80;;;;;;5059365;28;20025;-77
2022/05/09 09:15:44;;;;;;;5.63;4.13;;;17.30;99.30;;;;;;5076929;28;19915;-77
2022/05/09 09:18:18;;;;;;;5.57;3.85;;;17.40;98.70;;;;;;5076923;28;20067;-77
2022/05/09 09:20:56;;;;;;;5.93;3.55;;;17.50;98.10;;;;;;5076745;28;20024;-77
2022/05/09 09:23:55;;;;;;;9.85;3.97;;;17.60;97.70;;;;;;5076776;28;20028;-77
2022/05/09 09:26:35;;;;;;;7.35;3.42;;;17.70;96.40;;;;;;5076957;28;20040;-77
2022/05/09 09:29:47;;;;;;;4.88;3.78;;;17.90;96.20;;;;;;5077916;28;20468;-77
2022/05/09 09:32:18;;;;;;;5.85;3.60;;;18.10;97.00;;;;;;4977150;28;20034;-77
2022/05/09 09:35:08;;;;;;;4.05;3.50;;;18.30;94.80;;;;;;5049038;28;20051;-77
2022/05/09 09:37:44;;;;;;;4.95;3.40;;;18.40;93.90;;;;;;5077142;28;20040;-78
2022/05/09 09:40:10;;;;;;;4.38;3.15;;;18.50;93.50;;;;;;5076355;28;20024;-80
2022/05/09 09:42:36;;;;;;;6.50;3.60;;;18.60;91.90;;;;;;5058093;28;20115;-80
2022/05/09 09:45:34;;;;;;;4.00;3.25;;;18.70;90.80;;;;;;5058217;28;20536;-78
2022/05/09 09:48:10;;;;;;;4.80;3.30;;;18.70;90.60;;;;;;5057671;28;20032;-78
2022/05/09 09:50:36;;;;;;;4.25;3.42;;;18.80;91.30;;;;;;5058245;28;20028;-78
2022/05/09 09:53:03;;;;;;;3.95;3.20;;;18.90;90.20;;;;;;5076561;28;20028;-78
2022/05/09 09:55:35;;;;;;;8.35;3.45;;;19.00;90.40;;;;;;5075778;28;20021;-78
2022/05/09 09:58:27;;;;;;;5.15;3.25;;;19.10;90.40;;;;;;5075904;28;20480;-78
2022/05/09 10:01:23;;;;;;;5.68;3.20;;;19.30;90.50;;;;;;5058285;28;20029;-78
2022/05/09 10:04:04;;;;;;;6.88;3.63;;;19.40;85.40;;;;;;5058112;28;20123;-78
2022/05/09 10:06:30;;;;;;;7.03;2.95;;;19.40;83.50;;;;;;5057706;28;20119;-78
2022/05/09 10:09:03;;;;;;;9.55;3.42;;;19.50;81.00;;;;;;5075833;28;20430;-78
2022/05/09 10:11:30;;;;;;;5.15;3.45;;;19.50;85.40;;;;;;5057847;28;20472;-78
2022/05/09 10:14:02;;;;;;;5.88;2.88;;;19.60;84.30;;;;;;5076005;28;20020;-78
2022/05/09 10:16:33;;;;;;;6.63;3.10;;;19.70;86.30;;;;;;5076430;28;20025;-78
2022/05/09 10:19:00;;;;;;;4.93;3.00;;;19.90;84.50;;;;;;5076279;28;20044;-78
2022/05/09 10:24:51;;;;;;;4.65;3.00;;;20.20;79.60;;;;;;5075581;28;20491;-78
2022/05/09 10:27:23;;;;;;;9.63;3.00;;;20.20;80.40;;;;;;5075185;28;20052;-78
2022/05/09 10:29:56;;;;;;;4.60;2.90;;;20.30;78.20;;;;;;5074858;28;20025;-78
2022/05/09 10:32:47;;;;;;;5.18;3.28;;;20.40;75.40;;;;;;5075234;28;20017;-78
2022/05/09 10:35:18;;;;;;;;;;;20.50;75.90;;;;;;5063886;28;20040;-78
2022/05/09 10:37:53;;;;;;;6.30;3.00;;;20.50;73.60;;;;;;5056834;28;19908;-78
2022/05/09 10:40:29;;;;;;;4.68;2.92;;;20.50;76.60;;;;;;5074731;28;20027;-78
2022/05/09 10:43:06;;;;;;;5.63;3.00;;;20.60;76.80;;;;;;5075282;28;20040;-78
2022/05/09 10:45:43;;;;;;;8.00;2.97;;;20.60;76.60;;;;;;5074988;28;20035;-78
2022/05/09 10:48:21;;;;;;;4.93;3.30;;;20.70;76.00;;;;;;5075359;28;20028;-80
2022/05/09 10:51:11;;;;;;;5.28;2.80;;;20.60;73.90;;;;;;5074405;28;20377;-80
2022/05/09 10:53:53;;;;;;;5.25;2.80;;;20.70;74.80;;;;;;5063808;28;20048;-81
2022/05/09 10:56:35;;;;;;;4.90;2.85;;;20.80;70.90;;;;;;5057004;28;20388;-80
2022/05/09 10:59:19;;;;;;;8.63;3.22;;;20.80;75.60;;;;;;5077943;28;20029;-81
2022/05/09 11:01:54;;;;;;;6.55;2.92;;;20.80;71.00;;;;;;5074685;28;20016;-77
2022/05/09 11:04:19;;;;;;;4.72;3.05;;;20.90;73.10;;;;;;5074299;28;20021;-78
2022/05/09 11:07:03;;;;;;;5.07;3.20;;;20.90;74.20;;;;;;5075593;28;20383;-78
2022/05/09 11:09:45;;;;;;;6.80;2.80;;;21.10;69.80;;;;;;5074362;28;20073;-77
2022/05/09 11:12:35;;;;;;;5.43;2.75;;;21.20;71.60;;;;;;5074248;28;20039;-77
2022/05/09 11:15:07;;;;;;;7.80;3.17;;;21.40;69.70;;;;;;5073962;28;20017;-77
2022/05/09 11:18:00;;;;;;;6.17;3.20;;;21.50;67.90;;;;;;5073667;28;20027;-78
2022/05/09 11:20:35;;;;;;;5.50;2.50;;;21.50;66.70;;;;;;5074006;28;20024;-77
2022/05/09 11:23:16;;;;;;;;;;;21.30;64.00;;;;;;5072478;28;19951;-77
2022/05/09 11:25:55;;;;;;;;;;;21.10;67.70;;;;;;5070961;28;20031;-77
2022/05/09 11:28:23;;;;;;;;;;;21.00;64.60;;;;;;5072246;28;20089;-77
2022/05/09 11:30:51;;;;;;;;;;;20.90;63.70;;;;;;5071396;28;20287;-77
2022/05/09 11:33:16;;;;;;;;;;;20.80;65.60;;;;;;5073016;28;19955;-77
2022/05/09 11:35:44;;;;;;;;;;;20.80;69.00;;;;;;5067398;28;20369;-77
2022/05/09 11:38:25;;;;;;;;;;;20.80;74.50;;;;;;5073092;28;19916;-78
2022/05/09 11:40:51;;;;;;;;;;;20.80;75.70;;;;;;5072529;28;19908;-77
2022/05/09 11:43:37;;;;;;;;;;;20.80;77.80;;;;;;5071182;28;19908;-77
2022/05/09 11:46:08;;;;;;;;;;;20.90;78.90;;;;;;5073046;28;19915;-77
2022/05/09 11:48:42;;;;;;;;;;;21.00;80.10;;;;;;5076108;28;19908;-77
2022/05/09 11:51:13;;;;;;;;;;;21.20;80.60;;;;;;5072632;28;20386;-77
2022/05/09 11:53:41;;;;;;;;;;;21.30;81.00;;;;;;5073866;28;20337;-77
2022/05/09 11:56:07;;;;;;;;;;;21.40;81.10;;;;;;5073201;28;20348;-77
2022/05/09 11:58:37;;;;;;;;;;;21.50;80.10;;;;;;5073473;28;20290;-77
2022/05/09 12:01:03;;;;;;;;;;;21.60;79.40;;;;;;5073499;28;19904;-77
2022/05/09 12:03:41;;;;;;;;;;;21.70;78.90;;;;;;5073492;28;19904;-77
2022/05/09 12:06:12;;;;;;;;;;;21.80;79.00;;;;;;5073209;28;20352;-77
2022/05/09 12:08:45;;;;;;;;;;;21.90;78.40;;;;;;5073709;28;20387;-77
2022/05/09 12:11:16;;;;;;;;;;;22.00;77.60;;;;;;5073360;28;19916;-77
2022/05/09 12:13:42;;;;;;;;;;;22.10;75.70;;;;;;5073379;28;19995;-77
2022/05/09 12:16:08;;;;;;;;;;;22.10;74.00;;;;;;5073041;28;20008;-77
2022/05/09 12:18:55;;;;;;;;;;;22.10;70.30;;;;;;5073260;28;20364;-77
2022/05/09 12:21:22;;;;;;;;;;;22.10;68.90;;;;;;5073338;28;20010;-77
2022/05/09 12:23:50;;;;;;;;;;;22.10;70.00;;;;;;5073078;28;19966;-77
2022/05/09 12:26:27;;;;;;;;;;;22.10;70.20;;;;;;5073262;28;20292;-77
2022/05/09 12:29:05;;;;;;;;;;;21.90;71.80;;;;;;5055445;28;20372;-77
2022/05/09 12:31:32;;;;;;;;;;;21.80;73.10;;;;;;5073574;28;20421;-77
2022/05/09 12:33:58;;;;;;;;;;;21.80;74.30;;;;;;5055073;28;19995;-77
2022/05/09 12:36:35;;;;;;;;;;;21.70;74.40;;;;;;5072764;28;20089;-77
2022/05/09 12:39:09;;;;;;;;;;;21.50;74.30;;;;;;5057531;28;19915;-77
2022/05/09 12:42:03;;;;;;;;;;;21.40;76.40;;;;;;5076917;28;20286;-77
2022/05/09 12:44:40;;;;;;;;;;;21.30;71.50;;;;;;5058956;28;19904;-77
2022/05/09 12:47:09;;;;;;;;;;;21.20;74.60;;;;;;5076646;28;19908;-77
2022/05/09 12:49:43;;;;;;;;;;;21.20;73.60;;;;;;5076715;28;20348;-77
2022/05/09 12:52:10;;;;;;;;;;;21.20;70.70;;;;;;5077635;28;19915;-78
2022/05/09 12:54:39;;;;;;;;;;;21.00;73.10;;;;;;5076815;28;19989;-77
2022/05/09 12:57:06;;;;;;;;;;;20.90;72.10;;;;;;5076273;28;19908;-76
2022/05/09 12:59:46;;;;;;;;;;;20.90;73.30;;;;;;5076329;28;19909;-76
2022/05/09 13:02:20;;;;;;;;;;;20.90;75.40;;;;;;5076516;28;20279;-76
2022/05/09 13:04:47;;;;;;;;;;;21.00;74.10;;;;;;5076587;28;19954;-76
2022/05/09 13:07:12;;;;;;;;;;;21.00;72.70;;;;;;5056332;28;19905;-76
2022/05/09 13:09:54;;;;;;;;;;;21.00;73.40;;;;;;5056351;28;20360;-76
2022/05/09 13:12:20;;;;;;;;;;;20.90;72.20;;;;;;5056357;28;19913;-76
2022/05/09 13:14:59;;;;;;;;;;;21.00;72.00;;;;;;5056334;28;19912;-76
2022/05/09 13:17:36;;;;;;;;;;;21.20;76.00;;;;;;5056546;28;19905;-76
2022/05/09 13:20:03;;;;;;;;;;;21.40;71.40;;;;;;5056082;28;19905;-76
2022/05/09 13:22:52;;;;;;;;;;;21.60;72.10;;;;;;5055927;28;20047;-76
2022/05/09 13:25:21;;;;;;;;;;;21.90;69.40;;;;;;5052034;28;19908;-77